KJFZ

Tazewell County Airport

Richlands, Virginia, USA
METAR KJFZ 220955Z AUTO 00000KT M1/4SM HZ OVC001 16/M01 A3017 RMK AO2 T01621013
Observed Flight Rules
May-22 @ 09:55 UTC (21 minutes ago) Instrument Flight Rules
Visibility Clouds Conditions
1/4 miles
  • Overcast at 100' AGL
  • Haze
Temperatures Readings
Current 16°C / 61°F
Dewpoint -1°C / 30°F
Humidity 31%
Altimeter 30.17" Hg
Pressure 1022 hPa
Elevation 809
METAR KJFZ 220955Z AUTO 00000KT M1/4SM HZ OVC001 16/M01 A3017 RMK AO2 T01621013
Observed Flight Rules
May-22 @ 09:55 UTC
(21 minutes ago)
LIFR
Clouds
  • Overcast at 100' AGL
Conditions
  • Haze
Temperature Dewpoint
16°C / 61°F -1°C / 30°F
Humidity Altimeter Pressure
31% 30.17" Hg 1022 hPa